sensor_id;sensor_type;location;lat;lon;timestamp;pressure;altitude;pressure_sealevel;temperature;humidity
6694;BME280;3384;42.628;23.380;2022-12-07T00:01:08;94142.59;;;5.91;100.00
6694;BME280;3384;42.628;23.380;2022-12-07T00:03:36;94143.50;;;6.15;100.00
6694;BME280;3384;42.628;23.380;2022-12-07T00:06:04;94145.41;;;6.09;100.00
6694;BME280;3384;42.628;23.380;2022-12-07T00:08:32;94141.56;;;6.30;100.00
6694;BME280;3384;42.628;23.380;2022-12-07T00:11:01;94140.22;;;6.33;100.00
6694;BME280;3384;42.628;23.380;2022-12-07T00:13:28;94142.03;;;6.37;100.00
6694;BME280;3384;42.628;23.380;2022-12-07T00:15:55;94140.22;;;6.33;100.00
6694;BME280;3384;42.628;23.380;2022-12-07T00:18:23;94138.38;;;6.28;100.00
6694;BME280;3384;42.628;23.380;2022-12-07T00:20:50;94136.56;;;6.24;100.00
6694;BME280;3384;42.628;23.380;2022-12-07T00:23:17;94137.03;;;6.31;100.00
6694;BME280;3384;42.628;23.380;2022-12-07T00:25:43;94124.41;;;6.08;100.00
6694;BME280;3384;42.628;23.380;2022-12-07T00:28:10;94122.00;;;6.11;100.00
6694;BME280;3384;42.628;23.380;2022-12-07T00:30:37;94129.97;;;6.11;100.00
6694;BME280;3384;42.628;23.380;2022-12-07T00:33:04;94117.38;;;6.27;100.00
6694;BME280;3384;42.628;23.380;2022-12-07T00:35:32;94114.03;;;6.11;100.00
6694;BME280;3384;42.628;23.380;2022-12-07T00:37:59;94123.63;;;6.02;100.00
6694;BME280;3384;42.628;23.380;2022-12-07T00:40:26;94130.53;;;6.08;100.00
6694;BME280;3384;42.628;23.380;2022-12-07T00:42:52;94134.56;;;6.39;100.00
6694;BME280;3384;42.628;23.380;2022-12-07T00:45:19;94133.44;;;6.50;100.00
6694;BME280;3384;42.628;23.380;2022-12-07T00:47:46;94127.91;;;6.42;100.00
6694;BME280;3384;42.628;23.380;2022-12-07T00:50:13;94121.63;;;6.61;100.00
6694;BME280;3384;42.628;23.380;2022-12-07T00:52:41;94120.00;;;6.32;100.00
6694;BME280;3384;42.628;23.380;2022-12-07T00:55:08;94124.84;;;6.58;100.00
6694;BME280;3384;42.628;23.380;2022-12-07T00:57:35;94120.78;;;6.32;100.00
6694;BME280;3384;42.628;23.380;2022-12-07T01:00:02;94104.56;;;6.34;100.00
6694;BME280;3384;42.628;23.380;2022-12-07T01:02:29;94115.53;;;6.56;100.00
6694;BME280;3384;42.628;23.380;2022-12-07T01:04:56;94123.69;;;6.69;100.00
6694;BME280;3384;42.628;23.380;2022-12-07T01:07:23;94121.94;;;6.55;100.00
6694;BME280;3384;42.628;23.380;2022-12-07T01:09:51;94122.56;;;6.47;100.00
6694;BME280;3384;42.628;23.380;2022-12-07T01:12:18;94123.59;;;6.51;100.00
6694;BME280;3384;42.628;23.380;2022-12-07T01:14:44;94118.59;;;6.39;100.00
6694;BME280;3384;42.628;23.380;2022-12-07T01:17:11;94120.59;;;6.19;100.00
6694;BME280;3384;42.628;23.380;2022-12-07T01:19:38;94116.47;;;6.41;100.00
6694;BME280;3384;42.628;23.380;2022-12-07T01:22:05;94107.44;;;6.37;100.00
6694;BME280;3384;42.628;23.380;2022-12-07T01:24:32;94111.16;;;6.41;100.00
6694;BME280;3384;42.628;23.380;2022-12-07T01:27:00;94099.63;;;6.17;100.00
6694;BME280;3384;42.628;23.380;2022-12-07T01:29:27;94094.94;;;6.38;100.00
6694;BME280;3384;42.628;23.380;2022-12-07T01:31:54;94096.28;;;6.35;100.00
6694;BME280;3384;42.628;23.380;2022-12-07T01:34:20;94093.50;;;6.50;100.00
6694;BME280;3384;42.628;23.380;2022-12-07T01:36:47;94098.28;;;6.53;100.00
6694;BME280;3384;42.628;23.380;2022-12-07T01:39:14;94102.22;;;6.61;100.00
6694;BME280;3384;42.628;23.380;2022-12-07T01:41:41;94105.69;;;6.56;100.00
6694;BME280;3384;42.628;23.380;2022-12-07T01:44:27;94103.19;;;6.36;100.00
6694;BME280;3384;42.628;23.380;2022-12-07T01:46:56;94102.38;;;6.41;100.00
6694;BME280;3384;42.628;23.380;2022-12-07T01:49:29;94099.81;;;6.59;100.00
6694;BME280;3384;42.628;23.380;2022-12-07T01:52:03;94101.41;;;6.27;100.00
6694;BME280;3384;42.628;23.380;2022-12-07T01:54:34;94098.66;;;6.03;100.00
6694;BME280;3384;42.628;23.380;2022-12-07T01:57:03;94086.44;;;5.97;100.00
6694;BME280;3384;42.628;23.380;2022-12-07T01:59:34;94089.81;;;6.08;100.00
6694;BME280;3384;42.628;23.380;2022-12-07T02:02:02;94081.69;;;5.94;100.00
6694;BME280;3384;42.628;23.380;2022-12-07T02:04:31;94082.03;;;5.78;100.00
6694;BME280;3384;42.628;23.380;2022-12-07T02:06:58;94081.75;;;5.74;100.00
6694;BME280;3384;42.628;23.380;2022-12-07T02:09:25;94079.63;;;5.81;100.00
6694;BME280;3384;42.628;23.380;2022-12-07T02:11:53;94071.91;;;5.85;100.00
6694;BME280;3384;42.628;23.380;2022-12-07T02:14:21;94065.59;;;6.09;100.00
6694;BME280;3384;42.628;23.380;2022-12-07T02:16:59;94069.41;;;6.32;100.00
6694;BME280;3384;42.628;23.380;2022-12-07T02:19:54;94079.25;;;6.36;100.00
6694;BME280;3384;42.628;23.380;2022-12-07T02:22:40;94078.69;;;6.39;100.00
6694;BME280;3384;42.628;23.380;2022-12-07T02:25:18;94084.44;;;6.18;100.00
6694;BME280;3384;42.628;23.380;2022-12-07T02:27:52;94090.50;;;6.23;100.00
6694;BME280;3384;42.628;23.380;2022-12-07T02:30:26;94083.34;;;6.19;100.00
6694;BME280;3384;42.628;23.380;2022-12-07T02:32:58;94075.63;;;6.22;100.00
6694;BME280;3384;42.628;23.380;2022-12-07T02:35:32;94069.28;;;6.13;100.00
6694;BME280;3384;42.628;23.380;2022-12-07T02:38:03;94057.06;;;6.17;100.00
6694;BME280;3384;42.628;23.380;2022-12-07T02:40:38;94066.38;;;6.48;100.00
6694;BME280;3384;42.628;23.380;2022-12-07T02:43:09;94052.00;;;6.49;100.00
6694;BME280;3384;42.628;23.380;2022-12-07T02:45:41;94063.75;;;6.43;100.00
6694;BME280;3384;42.628;23.380;2022-12-07T02:48:10;94062.72;;;6.39;100.00
6694;BME280;3384;42.628;23.380;2022-12-07T02:50:38;94067.50;;;6.04;100.00
6694;BME280;3384;42.628;23.380;2022-12-07T02:53:04;94069.19;;;5.95;100.00
6694;BME280;3384;42.628;23.380;2022-12-07T02:55:36;94073.25;;;5.77;100.00
6694;BME280;3384;42.628;23.380;2022-12-07T02:58:16;94069.41;;;6.03;100.00
6694;BME280;3384;42.628;23.380;2022-12-07T03:00:54;94064.72;;;6.24;100.00
6694;BME280;3384;42.628;23.380;2022-12-07T03:03:22;94058.09;;;6.21;100.00
6694;BME280;3384;42.628;23.380;2022-12-07T03:06:00;94050.69;;;6.47;100.00
6694;BME280;3384;42.628;23.380;2022-12-07T03:08:36;94034.66;;;6.52;100.00
6694;BME280;3384;42.628;23.380;2022-12-07T03:11:06;94046.09;;;6.52;100.00
6694;BME280;3384;42.628;23.380;2022-12-07T03:13:39;94058.19;;;6.68;100.00
6694;BME280;3384;42.628;23.380;2022-12-07T03:16:14;94053.19;;;6.62;100.00
6694;BME280;3384;42.628;23.380;2022-12-07T03:18:46;94050.63;;;6.52;100.00
6694;BME280;3384;42.628;23.380;2022-12-07T03:21:17;94043.94;;;6.54;100.00
6694;BME280;3384;42.628;23.380;2022-12-07T03:23:48;94041.28;;;6.54;100.00
6694;BME280;3384;42.628;23.380;2022-12-07T03:26:18;94034.09;;;6.55;100.00
6694;BME280;3384;42.628;23.380;2022-12-07T03:28:50;94042.50;;;6.38;100.00
6694;BME280;3384;42.628;23.380;2022-12-07T03:31:21;94039.28;;;6.08;100.00
6694;BME280;3384;42.628;23.380;2022-12-07T03:33:54;94049.56;;;6.19;100.00
6694;BME280;3384;42.628;23.380;2022-12-07T03:36:26;94043.78;;;6.12;100.00
6694;BME280;3384;42.628;23.380;2022-12-07T03:38:57;94038.19;;;6.14;100.00
6694;BME280;3384;42.628;23.380;2022-12-07T03:41:30;94048.88;;;6.09;100.00
6694;BME280;3384;42.628;23.380;2022-12-07T03:43:58;94040.69;;;6.00;100.00
6694;BME280;3384;42.628;23.380;2022-12-07T03:46:33;94046.00;;;6.00;100.00
6694;BME280;3384;42.628;23.380;2022-12-07T03:49:07;94043.56;;;6.37;100.00
6694;BME280;3384;42.628;23.380;2022-12-07T03:51:40;94059.69;;;6.51;100.00
6694;BME280;3384;42.628;23.380;2022-12-07T03:54:14;94046.78;;;6.34;100.00
6694;BME280;3384;42.628;23.380;2022-12-07T03:56:44;94038.63;;;6.26;100.00
6694;BME280;3384;42.628;23.380;2022-12-07T03:59:13;94037.00;;;6.30;100.00
6694;BME280;3384;42.628;23.380;2022-12-07T04:01:43;94042.59;;;6.28;100.00
6694;BME280;3384;42.628;23.380;2022-12-07T04:04:10;94042.88;;;6.27;100.00
6694;BME280;3384;42.628;23.380;2022-12-07T04:06:37;94029.38;;;6.18;100.00
6694;BME280;3384;42.628;23.380;2022-12-07T04:09:04;94030.72;;;6.44;100.00
6694;BME280;3384;42.628;23.380;2022-12-07T04:11:30;94037.28;;;6.23;100.00
6694;BME280;3384;42.628;23.380;2022-12-07T04:13:57;94040.09;;;6.08;100.00
6694;BME280;3384;42.628;23.380;2022-12-07T04:16:43;94033.72;;;6.38;100.00
6694;BME280;3384;42.628;23.380;2022-12-07T04:19:09;94037.75;;;6.35;100.00
6694;BME280;3384;42.628;23.380;2022-12-07T04:21:36;94036.59;;;6.13;100.00
6694;BME280;3384;42.628;23.380;2022-12-07T04:24:04;94036.06;;;6.11;100.00
6694;BME280;3384;42.628;23.380;2022-12-07T04:26:31;94030.31;;;6.32;100.00
6694;BME280;3384;42.628;23.380;2022-12-07T04:28:58;94042.25;;;6.35;100.00
6694;BME280;3384;42.628;23.380;2022-12-07T04:31:24;94035.56;;;6.42;100.00
6694;BME280;3384;42.628;23.380;2022-12-07T04:33:53;94039.31;;;6.36;100.00
6694;BME280;3384;42.628;23.380;2022-12-07T04:36:19;94045.72;;;6.35;100.00
6694;BME280;3384;42.628;23.380;2022-12-07T04:38:47;94048.13;;;5.98;100.00
6694;BME280;3384;42.628;23.380;2022-12-07T04:41:14;94047.66;;;5.91;100.00
6694;BME280;3384;42.628;23.380;2022-12-07T04:43:41;94042.22;;;5.62;100.00
6694;BME280;3384;42.628;23.380;2022-12-07T04:46:07;94050.94;;;5.73;100.00
6694;BME280;3384;42.628;23.380;2022-12-07T04:48:34;94040.84;;;5.70;100.00
6694;BME280;3384;42.628;23.380;2022-12-07T04:51:04;94041.81;;;5.89;100.00
6694;BME280;3384;42.628;23.380;2022-12-07T04:53:31;94042.25;;;6.01;100.00
6694;BME280;3384;42.628;23.380;2022-12-07T04:55:57;94043.97;;;5.87;100.00
6694;BME280;3384;42.628;23.380;2022-12-07T04:58:26;94044.59;;;5.69;100.00
6694;BME280;3384;42.628;23.380;2022-12-07T05:00:54;94044.19;;;5.91;100.00
6694;BME280;3384;42.628;23.380;2022-12-07T05:03:20;94046.16;;;6.14;100.00
6694;BME280;3384;42.628;23.380;2022-12-07T05:05:47;94041.78;;;5.94;100.00
6694;BME280;3384;42.628;23.380;2022-12-07T05:08:16;94040.31;;;6.12;100.00
6694;BME280;3384;42.628;23.380;2022-12-07T05:10:42;94035.56;;;5.65;100.00
6694;BME280;3384;42.628;23.380;2022-12-07T05:13:09;94037.56;;;5.88;100.00
6694;BME280;3384;42.628;23.380;2022-12-07T05:15:36;94037.06;;;5.86;100.00
6694;BME280;3384;42.628;23.380;2022-12-07T05:18:03;94030.63;;;5.92;100.00
6694;BME280;3384;42.628;23.380;2022-12-07T05:20:30;94047.72;;;5.76;100.00
6694;BME280;3384;42.628;23.380;2022-12-07T05:22:57;94047.25;;;5.64;100.00
6694;BME280;3384;42.628;23.380;2022-12-07T05:25:25;94050.41;;;5.71;100.00
6694;BME280;3384;42.628;23.380;2022-12-07T05:27:52;94045.06;;;5.81;100.00
6694;BME280;3384;42.628;23.380;2022-12-07T05:30:19;94037.59;;;5.78;100.00
6694;BME280;3384;42.628;23.380;2022-12-07T05:32:46;94035.94;;;5.92;100.00
6694;BME280;3384;42.628;23.380;2022-12-07T05:35:12;94048.25;;;5.83;100.00
6694;BME280;3384;42.628;23.380;2022-12-07T05:37:39;94050.78;;;6.03;100.00
6694;BME280;3384;42.628;23.380;2022-12-07T05:40:07;94056.50;;;5.82;100.00
6694;BME280;3384;42.628;23.380;2022-12-07T05:42:36;94050.94;;;5.68;100.00
6694;BME280;3384;42.628;23.380;2022-12-07T05:45:07;94036.66;;;5.59;100.00
6694;BME280;3384;42.628;23.380;2022-12-07T05:47:34;94026.31;;;5.52;100.00
6694;BME280;3384;42.628;23.380;2022-12-07T05:50:00;94028.47;;;5.94;100.00
6694;BME280;3384;42.628;23.380;2022-12-07T05:52:27;94045.34;;;6.13;100.00
6694;BME280;3384;42.628;23.380;2022-12-07T05:54:54;94037.09;;;6.15;100.00
6694;BME280;3384;42.628;23.380;2022-12-07T05:57:21;94033.78;;;6.33;100.00
6694;BME280;3384;42.628;23.380;2022-12-07T05:59:49;94037.19;;;6.38;100.00
6694;BME280;3384;42.628;23.380;2022-12-07T06:02:15;94030.47;;;6.12;100.00
6694;BME280;3384;42.628;23.380;2022-12-07T06:04:44;94034.88;;;5.93;100.00
6694;BME280;3384;42.628;23.380;2022-12-07T06:07:13;94030.59;;;5.97;100.00
6694;BME280;3384;42.628;23.380;2022-12-07T06:09:41;94031.38;;;5.98;100.00
6694;BME280;3384;42.628;23.380;2022-12-07T06:12:09;94037.75;;;6.02;100.00
6694;BME280;3384;42.628;23.380;2022-12-07T06:14:55;94037.28;;;5.90;100.00
6694;BME280;3384;42.628;23.380;2022-12-07T06:17:21;94035.44;;;5.85;100.00
6694;BME280;3384;42.628;23.380;2022-12-07T06:19:51;94035.94;;;5.92;100.00
6694;BME280;3384;42.628;23.380;2022-12-07T06:22:18;94041.13;;;5.68;100.00
6694;BME280;3384;42.628;23.380;2022-12-07T06:24:45;94038.31;;;5.94;100.00
6694;BME280;3384;42.628;23.380;2022-12-07T06:27:12;94046.22;;;5.65;100.00
6694;BME280;3384;42.628;23.380;2022-12-07T06:29:38;94038.91;;;5.86;100.00
6694;BME280;3384;42.628;23.380;2022-12-07T06:32:07;94057.13;;;6.07;100.00
6694;BME280;3384;42.628;23.380;2022-12-07T06:34:34;94053.72;;;5.97;100.00
6694;BME280;3384;42.628;23.380;2022-12-07T06:37:01;94060.50;;;6.18;100.00
6694;BME280;3384;42.628;23.380;2022-12-07T06:39:28;94057.16;;;6.36;100.00
6694;BME280;3384;42.628;23.380;2022-12-07T06:41:56;94056.66;;;6.29;100.00
6694;BME280;3384;42.628;23.380;2022-12-07T06:44:23;94053.72;;;6.30;100.00
6694;BME280;3384;42.628;23.380;2022-12-07T06:46:51;94052.53;;;6.46;100.00
6694;BME280;3384;42.628;23.380;2022-12-07T06:49:19;94055.28;;;6.03;100.00
6694;BME280;3384;42.628;23.380;2022-12-07T06:51:46;94060.06;;;6.39;100.00
6694;BME280;3384;42.628;23.380;2022-12-07T06:54:14;94054.72;;;6.39;100.00
6694;BME280;3384;42.628;23.380;2022-12-07T06:56:41;94060.22;;;6.19;100.00
6694;BME280;3384;42.628;23.380;2022-12-07T06:59:08;94045.19;;;6.00;100.00
6694;BME280;3384;42.628;23.380;2022-12-07T07:01:35;94047.94;;;6.23;100.00
6694;BME280;3384;42.628;23.380;2022-12-07T07:04:03;94054.75;;;6.34;100.00
6694;BME280;3384;42.628;23.380;2022-12-07T07:06:31;94062.75;;;6.01;100.00
6694;BME280;3384;42.628;23.380;2022-12-07T07:08:58;94058.09;;;6.16;100.00
6694;BME280;3384;42.628;23.380;2022-12-07T07:11:25;94075.00;;;6.35;100.00
6694;BME280;3384;42.628;23.380;2022-12-07T07:13:51;94058.38;;;6.15;100.00
6694;BME280;3384;42.628;23.380;2022-12-07T07:16:19;94063.88;;;6.28;100.00
6694;BME280;3384;42.628;23.380;2022-12-07T07:18:45;94054.75;;;6.01;100.00
6694;BME280;3384;42.628;23.380;2022-12-07T07:21:12;94054.81;;;6.29;100.00
6694;BME280;3384;42.628;23.380;2022-12-07T07:23:43;94051.28;;;6.67;100.00
6694;BME280;3384;42.628;23.380;2022-12-07T07:26:10;94062.09;;;6.47;100.00
6694;BME280;3384;42.628;23.380;2022-12-07T07:28:37;94063.72;;;6.48;100.00
6694;BME280;3384;42.628;23.380;2022-12-07T07:31:04;94065.31;;;6.44;100.00
6694;BME280;3384;42.628;23.380;2022-12-07T07:33:31;94060.34;;;6.38;100.00
6694;BME280;3384;42.628;23.380;2022-12-07T07:35:58;94071.69;;;6.48;100.00
6694;BME280;3384;42.628;23.380;2022-12-07T07:38:24;94065.91;;;6.41;100.00
6694;BME280;3384;42.628;23.380;2022-12-07T07:40:52;94072.84;;;6.37;100.00
6694;BME280;3384;42.628;23.380;2022-12-07T07:43:21;94070.72;;;6.34;100.00
6694;BME280;3384;42.628;23.380;2022-12-07T07:45:48;94071.38;;;6.55;100.00
6694;BME280;3384;42.628;23.380;2022-12-07T07:48:15;94067.66;;;6.79;100.00
6694;BME280;3384;42.628;23.380;2022-12-07T07:50:44;94070.25;;;6.61;100.00
6694;BME280;3384;42.628;23.380;2022-12-07T07:53:10;94066.66;;;6.47;100.00
6694;BME280;3384;42.628;23.380;2022-12-07T07:55:37;94070.09;;;6.47;100.00
6694;BME280;3384;42.628;23.380;2022-12-07T07:58:05;94062.00;;;6.62;100.00
6694;BME280;3384;42.628;23.380;2022-12-07T08:00:32;94064.06;;;6.94;100.00
6694;BME280;3384;42.628;23.380;2022-12-07T08:02:59;94061.19;;;6.62;100.00
6694;BME280;3384;42.628;23.380;2022-12-07T08:05:26;94070.09;;;6.47;100.00
6694;BME280;3384;42.628;23.380;2022-12-07T08:07:52;94078.06;;;6.52;100.00
6694;BME280;3384;42.628;23.380;2022-12-07T08:10:19;94063.13;;;6.23;100.00
6694;BME280;3384;42.628;23.380;2022-12-07T08:12:46;94063.84;;;6.90;100.00
6694;BME280;3384;42.628;23.380;2022-12-07T08:15:31;94068.53;;;7.22;100.00
6694;BME280;3384;42.628;23.380;2022-12-07T08:17:58;94069.81;;;6.77;100.00
6694;BME280;3384;42.628;23.380;2022-12-07T08:20:25;94066.78;;;6.60;100.00
6694;BME280;3384;42.628;23.380;2022-12-07T08:22:52;94062.41;;;6.74;100.00
6694;BME280;3384;42.628;23.380;2022-12-07T08:25:19;94067.31;;;6.62;100.00
6694;BME280;3384;42.628;23.380;2022-12-07T08:27:48;94065.03;;;6.46;100.00
6694;BME280;3384;42.628;23.380;2022-12-07T08:30:15;94057.13;;;6.69;100.00
6694;BME280;3384;42.628;23.380;2022-12-07T08:32:43;94060.03;;;6.96;100.00
6694;BME280;3384;42.628;23.380;2022-12-07T08:35:10;94060.09;;;6.91;100.00
6694;BME280;3384;42.628;23.380;2022-12-07T08:37:38;94061.69;;;6.92;100.00
6694;BME280;3384;42.628;23.380;2022-12-07T08:40:06;94053.75;;;6.87;100.00
6694;BME280;3384;42.628;23.380;2022-12-07T08:42:34;94064.97;;;6.84;100.00
6694;BME280;3384;42.628;23.380;2022-12-07T08:45:06;94057.59;;;7.23;100.00
6694;BME280;3384;42.628;23.380;2022-12-07T08:47:34;94059.88;;;7.11;100.00
6694;BME280;3384;42.628;23.380;2022-12-07T08:50:04;94062.13;;;6.99;100.00
6694;BME280;3384;42.628;23.380;2022-12-07T08:52:33;94060.84;;;7.20;100.00
6694;BME280;3384;42.628;23.380;2022-12-07T08:55:02;94054.38;;;7.03;100.00
6694;BME280;3384;42.628;23.380;2022-12-07T08:57:30;94049.84;;;7.03;100.00
6694;BME280;3384;42.628;23.380;2022-12-07T08:59:59;94046.50;;;6.64;100.00
6694;BME280;3384;42.628;23.380;2022-12-07T09:02:26;94037.69;;;6.92;100.00
6694;BME280;3384;42.628;23.380;2022-12-07T09:04:53;94031.91;;;6.85;100.00
6694;BME280;3384;42.628;23.380;2022-12-07T09:07:21;94036.94;;;6.63;100.00
6694;BME280;3384;42.628;23.380;2022-12-07T09:09:48;94030.97;;;6.76;100.00
6694;BME280;3384;42.628;23.380;2022-12-07T09:12:15;94041.97;;;6.93;100.00
6694;BME280;3384;42.628;23.380;2022-12-07T09:14:41;94042.94;;;7.02;100.00
6694;BME280;3384;42.628;23.380;2022-12-07T09:17:10;94035.28;;;7.19;100.00
6694;BME280;3384;42.628;23.380;2022-12-07T09:19:37;94027.75;;;7.45;100.00
6694;BME280;3384;42.628;23.380;2022-12-07T09:22:04;94033.09;;;7.45;100.00
6694;BME280;3384;42.628;23.380;2022-12-07T09:24:33;94028.16;;;7.33;100.00
6694;BME280;3384;42.628;23.380;2022-12-07T09:27:00;94019.22;;;7.24;100.00
6694;BME280;3384;42.628;23.380;2022-12-07T09:29:26;94024.88;;;7.60;100.00
6694;BME280;3384;42.628;23.380;2022-12-07T09:31:53;94023.66;;;7.52;100.00
6694;BME280;3384;42.628;23.380;2022-12-07T09:34:20;94041.91;;;7.45;100.00
6694;BME280;3384;42.628;23.380;2022-12-07T09:36:47;94035.56;;;7.78;100.00
6694;BME280;3384;42.628;23.380;2022-12-07T09:39:14;94021.50;;;7.91;100.00
6694;BME280;3384;42.628;23.380;2022-12-07T09:41:44;94025.84;;;7.69;100.00
6694;BME280;3384;42.628;23.380;2022-12-07T09:44:14;94010.50;;;7.61;100.00
6694;BME280;3384;42.628;23.380;2022-12-07T09:46:45;94011.97;;;7.48;100.00
6694;BME280;3384;42.628;23.380;2022-12-07T09:49:16;94006.47;;;7.40;100.00
6694;BME280;3384;42.628;23.380;2022-12-07T09:51:44;94006.66;;;7.67;100.00
6694;BME280;3384;42.628;23.380;2022-12-07T09:54:13;94006.22;;;7.78;100.00
6694;BME280;3384;42.628;23.380;2022-12-07T09:56:42;94010.28;;;7.94;100.00
6694;BME280;3384;42.628;23.380;2022-12-07T09:59:14;94000.75;;;7.88;100.00
6694;BME280;3384;42.628;23.380;2022-12-07T10:01:43;93994.84;;;7.91;100.00
6694;BME280;3384;42.628;23.380;2022-12-07T10:04:13;94002.31;;;7.89;100.00
6694;BME280;3384;42.628;23.380;2022-12-07T10:06:41;94002.75;;;7.96;100.00
6694;BME280;3384;42.628;23.380;2022-12-07T10:09:10;93997.38;;;8.15;100.00
6694;BME280;3384;42.628;23.380;2022-12-07T10:12:00;93988.00;;;8.17;100.00
6694;BME280;3384;42.628;23.380;2022-12-07T10:14:28;93991.81;;;8.30;100.00
6694;BME280;3384;42.628;23.380;2022-12-07T10:16:56;93990.47;;;8.32;100.00
6694;BME280;3384;42.628;23.380;2022-12-07T10:19:25;93981.31;;;8.20;100.00
6694;BME280;3384;42.628;23.380;2022-12-07T10:22:01;93975.81;;;8.30;100.00
6694;BME280;3384;42.628;23.380;2022-12-07T10:24:28;93979.97;;;8.36;100.00
6694;BME280;3384;42.628;23.380;2022-12-07T10:26:56;93972.38;;;8.29;100.00
6694;BME280;3384;42.628;23.380;2022-12-07T10:29:29;93982.19;;;8.15;100.00
6694;BME280;3384;42.628;23.380;2022-12-07T10:31:58;93973.00;;;8.54;100.00
6694;BME280;3384;42.628;23.380;2022-12-07T10:34:27;93968.38;;;8.73;100.00
6694;BME280;3384;42.628;23.380;2022-12-07T10:37:13;93963.03;;;8.59;100.00
6694;BME280;3384;42.628;23.380;2022-12-07T10:39:42;93964.19;;;8.39;100.00
6694;BME280;3384;42.628;23.380;2022-12-07T10:42:17;93957.91;;;8.76;100.00
6694;BME280;3384;42.628;23.380;2022-12-07T10:44:46;93954.72;;;8.74;100.00
6694;BME280;3384;42.628;23.380;2022-12-07T10:47:27;93953.84;;;8.65;100.00
6694;BME280;3384;42.628;23.380;2022-12-07T10:50:38;93955.94;;;8.82;100.00
6694;BME280;3384;42.628;23.380;2022-12-07T10:56:34;93946.13;;;8.77;100.00
6694;BME280;3384;42.628;23.380;2022-12-07T10:59:23;93951.16;;;8.79;100.00
6694;BME280;3384;42.628;23.380;2022-12-07T11:02:02;93932.28;;;8.89;100.00
6694;BME280;3384;42.628;23.380;2022-12-07T11:04:39;93924.75;;;9.04;100.00
6694;BME280;3384;42.628;23.380;2022-12-07T11:07:16;93916.91;;;9.08;100.00
6694;BME280;3384;42.628;23.380;2022-12-07T11:09:59;93922.97;;;9.00;100.00
6694;BME280;3384;42.628;23.380;2022-12-07T11:12:36;93915.72;;;9.14;100.00
6694;BME280;3384;42.628;23.380;2022-12-07T11:15:13;93927.09;;;9.19;100.00
6694;BME280;3384;42.628;23.380;2022-12-07T11:17:48;93933.38;;;8.88;100.00
6694;BME280;3384;42.628;23.380;2022-12-07T11:20:36;93899.72;;;9.00;100.00
6694;BME280;3384;42.628;23.380;2022-12-07T11:23:11;93904.63;;;9.07;100.00
6694;BME280;3384;42.628;23.380;2022-12-07T11:25:46;93929.59;;;8.89;100.00
6694;BME280;3384;42.628;23.380;2022-12-07T11:28:26;93914.66;;;8.74;100.00
6694;BME280;3384;42.628;23.380;2022-12-07T11:31:03;93899.03;;;8.95;100.00
6694;BME280;3384;42.628;23.380;2022-12-07T11:33:40;93900.19;;;9.02;100.00
6694;BME280;3384;42.628;23.380;2022-12-07T11:36:17;93890.94;;;9.22;100.00
6694;BME280;3384;42.628;23.380;2022-12-07T11:38:53;93891.19;;;9.12;100.00
6694;BME280;3384;42.628;23.380;2022-12-07T11:41:24;93893.09;;;8.98;100.00
6694;BME280;3384;42.628;23.380;2022-12-07T11:43:56;93874.38;;;8.98;100.00
6694;BME280;3384;42.628;23.380;2022-12-07T11:46:27;93888.41;;;8.90;100.00
6694;BME280;3384;42.628;23.380;2022-12-07T11:49:03;93870.19;;;9.05;100.00
6694;BME280;3384;42.628;23.380;2022-12-07T11:51:37;93870.34;;;9.22;100.00
6694;BME280;3384;42.628;23.380;2022-12-07T11:54:12;93858.69;;;9.18;100.00
6694;BME280;3384;42.628;23.380;2022-12-07T11:56:42;93864.63;;;9.15;100.00
6694;BME280;3384;42.628;23.380;2022-12-07T11:59:12;93873.38;;;9.07;100.00
6694;BME280;3384;42.628;23.380;2022-12-07T12:01:50;93865.91;;;9.18;100.00
6694;BME280;3384;42.628;23.380;2022-12-07T12:04:33;93860.94;;;9.25;100.00
6694;BME280;3384;42.628;23.380;2022-12-07T12:07:01;93856.97;;;9.22;100.00
6694;BME280;3384;42.628;23.380;2022-12-07T12:09:29;93861.34;;;9.18;100.00
6694;BME280;3384;42.628;23.380;2022-12-07T12:12:31;93862.22;;;9.27;100.00
6694;BME280;3384;42.628;23.380;2022-12-07T12:15:17;93856.88;;;9.27;100.00
6694;BME280;3384;42.628;23.380;2022-12-07T12:18:15;93845.56;;;9.30;100.00
6694;BME280;3384;42.628;23.380;2022-12-07T12:20:50;93852.28;;;9.41;100.00
6694;BME280;3384;42.628;23.380;2022-12-07T12:23:20;93854.97;;;9.41;100.00
6694;BME280;3384;42.628;23.380;2022-12-07T12:25:50;93840.78;;;9.41;100.00
6694;BME280;3384;42.628;23.380;2022-12-07T12:28:23;93847.94;;;9.32;100.00
6694;BME280;3384;42.628;23.380;2022-12-07T12:31:09;93840.84;;;9.27;100.00
6694;BME280;3384;42.628;23.380;2022-12-07T12:33:37;93833.66;;;9.36;100.00
6694;BME280;3384;42.628;23.380;2022-12-07T12:36:21;93820.66;;;9.43;100.00
6694;BME280;3384;42.628;23.380;2022-12-07T12:38:51;93822.56;;;9.65;100.00
6694;BME280;3384;42.628;23.380;2022-12-07T12:41:56;93823.81;;;9.67;100.00
6694;BME280;3384;42.628;23.380;2022-12-07T12:45:17;93817.69;;;9.45;100.00
6694;BME280;3384;42.628;23.380;2022-12-07T12:48:02;93827.03;;;9.56;100.00
6694;BME280;3384;42.628;23.380;2022-12-07T12:50:32;93825.44;;;9.77;100.00
6694;BME280;3384;42.628;23.380;2022-12-07T12:53:20;93837.06;;;9.50;100.00
6694;BME280;3384;42.628;23.380;2022-12-07T12:59:21;93821.09;;;9.59;100.00
6694;BME280;3384;42.628;23.380;2022-12-07T13:01:49;93828.66;;;9.57;100.00
6694;BME280;3384;42.628;23.380;2022-12-07T13:04:37;93820.13;;;9.55;100.00
6694;BME280;3384;42.628;23.380;2022-12-07T13:07:10;93823.47;;;9.60;100.00
6694;BME280;3384;42.628;23.380;2022-12-07T13:09:42;93814.19;;;9.88;100.00
6694;BME280;3384;42.628;23.380;2022-12-07T13:12:15;93820.69;;;9.96;100.00
6694;BME280;3384;42.628;23.380;2022-12-07T13:14:52;93811.22;;;9.90;100.00
6694;BME280;3384;42.628;23.380;2022-12-07T13:17:57;93824.94;;;9.97;100.00
6694;BME280;3384;42.628;23.380;2022-12-07T13:20:46;93828.34;;;10.41;100.00
6694;BME280;3384;42.628;23.380;2022-12-07T13:23:16;93840.03;;;10.15;100.00
6694;BME280;3384;42.628;23.380;2022-12-07T13:28:46;93828.91;;;9.99;100.00
6694;BME280;3384;42.628;23.380;2022-12-07T13:31:28;93829.94;;;9.90;100.00
6694;BME280;3384;42.628;23.380;2022-12-07T13:33:57;93829.19;;;9.98;100.00
6694;BME280;3384;42.628;23.380;2022-12-07T13:36:25;93828.13;;;9.99;100.00
6694;BME280;3384;42.628;23.380;2022-12-07T13:38:55;93831.88;;;9.98;100.00